Destinations Ioannis Kapodistrias International Airport

Ioannis Kapodistrias International Airport (LGKR / CFU)

Flights to Ioannis Kapodistrias International Airport

Flight number From ETE Dispatch
SPY-2280 EGFF Cardiff International Airport 03:45
SPY-2330 EGFF Cardiff International Airport 03:45
SPY-2504 EGPH Edinburgh Airport 03:35
SPY-4120 LIRN Naples International Airport 01:25
SPY-502 EHGG Groningen Airport Eelde 02:50

Flights from Ioannis Kapodistrias International Airport

Flight number To ETE Dispatch
SPY-2281 EGFF Cardiff International Airport 03:45
SPY-2331 EGFF Cardiff International Airport 03:45
SPY-2505 EGPH Edinburgh Airport 03:35
SPY-4121 LIRN Naples International Airport 01:30
SPY-503 EHGG Groningen Airport Eelde
About

Ioannis Kapodistrias International Airport facts

Ioannis Kapodistrias International Airport is located in Kerkyra/corfu at an elevation of 1.8 meters or 6 feet.

Currently, Speedy Airlines serves 10 flights to and from Ioannis Kapodistrias International Airport.

Detailed airport info

Route map

Weather

Current weather

METAR

METAR

Metar data retrieved Sunday, 21 July 2024 at 18:55 UTC

LGKR 211820Z 27005KT 9999 FEW025 31/24 Q1007 NOSIG
Wind Temperature
5 kt 31c